Time;durP1;ratioP1;P1;durP2;ratioP2;P2;SDS_P1;SDS_P2;PMS_P1;PMS_P2;Temp;Humidity;BMP_temperature;BMP_pressure;BME280_temperature;BME280_humidity;BME280_pressure;Samples;Min_cycle;Max_cycle;Signal;HPM_P1;HPM_P2
2022/11/03 00:00:56;;;;;;;6.43;1.15;;;;;;;;;;4990250;28;20064;-64
2022/11/03 00:03:24;;;;;;;7.53;1.70;;;;;;;;;;5021698;28;20057;-63
2022/11/03 00:06:06;;;;;;;13.70;1.88;;;;;;;;;;5011495;28;20052;-63
2022/11/03 00:08:39;;;;;;;6.20;1.30;;;;;;;;;;5031456;28;20054;-62
2022/11/03 00:11:11;;;;;;;8.18;1.45;;;;;;;;;;5001338;28;20049;-62
2022/11/03 00:13:41;;;;;;;4.80;1.08;;;;;;;;;;5005265;28;20095;-63
2022/11/03 00:16:08;;;;;;;5.32;1.70;;;;;;;;;;5004056;28;20060;-61
2022/11/03 00:18:35;;;;;;;9.77;1.33;;;;;;;;;;5024205;28;20056;-62
2022/11/03 00:21:02;;;;;;;6.53;1.70;;;;;;;;;;5005074;28;20084;-63
2022/11/03 00:23:29;;;;;;;7.35;1.50;;;;;;;;;;5013484;28;20121;-64
2022/11/03 00:26:02;;;;;;;9.77;1.75;;;;;;;;;;4987689;28;20058;-62
2022/11/03 00:28:33;;;;;;;9.23;1.80;;;;;;;;;;4993821;28;20112;-65
2022/11/03 00:31:01;;;;;;;5.38;1.25;;;;;;;;;;4996286;28;20058;-63
2022/11/03 00:33:31;;;;;;;9.27;1.52;;;;;;;;;;5001917;28;20061;-63
2022/11/03 00:35:58;;;;;;;9.80;1.50;;;;;;;;;;4974927;28;20144;-62
2022/11/03 00:38:25;;;;;;;7.10;1.45;;;;;;;;;;5003838;28;20052;-62
2022/11/03 00:40:55;;;;;;;9.30;1.48;;;;;;;;;;5019590;28;20053;-61
2022/11/03 00:43:24;;;;;;;7.50;1.77;;;;;;;;;;5004433;28;20056;-62
2022/11/03 00:45:53;;;;;;;12.20;1.20;;;;;;;;;;5001162;28;20103;-63
2022/11/03 00:48:32;;;;;;;14.68;1.85;;;;;;;;;;5008560;28;20080;-62
2022/11/03 00:51:04;;;;;;;7.18;1.38;;;;;;;;;;4999732;28;20064;-63
2022/11/03 00:53:31;;;;;;;12.57;1.60;;;;;;;;;;5000749;28;20050;-64
2022/11/03 00:55:57;;;;;;;5.75;1.25;;;;;;;;;;4994275;28;20061;-64
2022/11/03 00:58:24;;;;;;;5.97;1.35;;;;;;;;;;4981205;28;20120;-62
2022/11/03 01:00:58;;;;;;;8.25;1.35;;;;;;;;;;4985618;28;20050;-63
2022/11/03 01:03:25;;;;;;;11.90;1.58;;;;;;;;;;4990941;28;20112;-63
2022/11/03 01:08:36;;;;;;;5.30;1.25;;;;;;;;;;4998076;28;20066;-62
2022/11/03 01:13:52;;;;;;;10.40;1.43;;;;;;;;;;4997086;28;20061;-62
2022/11/03 01:16:20;;;;;;;6.32;1.27;;;;;;;;;;4998351;28;20057;-62
2022/11/03 01:18:46;;;;;;;3.17;1.10;;;;;;;;;;4995044;28;20120;-63
2022/11/03 01:21:13;;;;;;;3.65;1.20;;;;;;;;;;5000513;28;20046;-62
2022/11/03 01:23:40;;;;;;;14.35;1.58;;;;;;;;;;4992914;28;20118;-62
2022/11/03 01:26:07;;;;;;;4.97;1.38;;;;;;;;;;5017221;28;20049;-61
2022/11/03 01:28:35;;;;;;;8.25;1.33;;;;;;;;;;5006722;28;20054;-62
2022/11/03 01:31:04;;;;;;;7.72;1.52;;;;;;;;;;4981931;28;20058;-62
2022/11/03 01:33:33;;;;;;;6.47;1.35;;;;;;;;;;4975692;28;20058;-63
2022/11/03 01:36:00;;;;;;;4.22;1.20;;;;;;;;;;4974804;28;20054;-63
2022/11/03 01:38:26;;;;;;;8.98;1.50;;;;;;;;;;4973048;28;20074;-63
2022/11/03 01:40:53;;;;;;;5.05;1.20;;;;;;;;;;5001194;28;20054;-62
2022/11/03 01:43:22;;;;;;;6.45;1.30;;;;;;;;;;4974546;28;20054;-61
2022/11/03 01:45:51;;;;;;;5.75;1.10;;;;;;;;;;4981067;28;20058;-61
2022/11/03 01:48:19;;;;;;;10.70;1.27;;;;;;;;;;4976131;28;20066;-62
2022/11/03 01:50:47;;;;;;;5.57;1.10;;;;;;;;;;4981195;28;20054;-61
2022/11/03 01:53:15;;;;;;;8.82;1.13;;;;;;;;;;4982861;28;20065;-62
2022/11/03 01:55:42;;;;;;;6.05;1.13;;;;;;;;;;4981046;28;20054;-61
2022/11/03 01:58:12;;;;;;;11.38;1.40;;;;;;;;;;4998835;28;20129;-62
2022/11/03 02:00:40;;;;;;;7.88;0.95;;;;;;;;;;4988191;28;20127;-62
2022/11/03 02:03:08;;;;;;;9.90;1.20;;;;;;;;;;5022714;28;20057;-62
2022/11/03 02:05:35;;;;;;;7.45;1.20;;;;;;;;;;4985147;28;20128;-62
2022/11/03 02:08:05;;;;;;;6.15;1.08;;;;;;;;;;4983360;28;20046;-61
2022/11/03 02:10:32;;;;;;;8.05;1.30;;;;;;;;;;5004988;28;20040;-62
2022/11/03 02:13:00;;;;;;;6.60;1.35;;;;;;;;;;5022596;28;20049;-62
2022/11/03 02:15:28;;;;;;;6.40;1.45;;;;;;;;;;5035653;28;20048;-62
2022/11/03 02:17:55;;;;;;;4.85;1.08;;;;;;;;;;5021447;28;20048;-61
2022/11/03 02:20:24;;;;;;;6.97;1.08;;;;;;;;;;5012845;28;20053;-61
2022/11/03 02:23:17;;;;;;;7.72;1.35;;;;;;;;;;4997864;28;20045;-62
2022/11/03 02:25:46;;;;;;;6.57;1.30;;;;;;;;;;5026685;28;20140;-62
2022/11/03 02:28:13;;;;;;;8.82;1.58;;;;;;;;;;4999505;28;20072;-61
2022/11/03 02:30:43;;;;;;;4.78;0.90;;;;;;;;;;5005364;28;20073;-64
2022/11/03 02:33:17;;;;;;;13.10;1.42;;;;;;;;;;5004077;28;20076;-62
2022/11/03 02:35:49;;;;;;;4.78;1.10;;;;;;;;;;5000837;28;20506;-62
2022/11/03 02:38:23;;;;;;;9.35;1.30;;;;;;;;;;5003440;28;20045;-61
2022/11/03 02:40:59;;;;;;;6.03;1.60;;;;;;;;;;4984704;28;20077;-61
2022/11/03 02:43:29;;;;;;;7.93;1.17;;;;;;;;;;4980045;28;20132;-63
2022/11/03 02:46:00;;;;;;;7.60;1.65;;;;;;;;;;5011838;28;20050;-61
2022/11/03 02:48:35;;;;;;;5.07;1.00;;;;;;;;;;5007319;28;20057;-62
2022/11/03 02:51:05;;;;;;;8.45;1.33;;;;;;;;;;5001764;28;20049;-61
2022/11/03 02:53:37;;;;;;;6.65;1.35;;;;;;;;;;5011657;28;20041;-62
2022/11/03 02:56:12;;;;;;;5.13;1.08;;;;;;;;;;4995575;28;20308;-62
2022/11/03 02:58:42;;;;;;;4.78;0.88;;;;;;;;;;4984958;28;20060;-63
2022/11/03 03:01:13;;;;;;;4.95;1.20;;;;;;;;;;4977637;28;20132;-63
2022/11/03 03:03:42;;;;;;;4.40;1.13;;;;;;;;;;5014976;28;20060;-63
2022/11/03 03:06:14;;;;;;;5.78;0.88;;;;;;;;;;5024507;28;20067;-61
2022/11/03 03:08:44;;;;;;;5.90;0.90;;;;;;;;;;5005659;28;20053;-62
2022/11/03 03:11:35;;;;;;;4.85;1.23;;;;;;;;;;5006238;28;20049;-61
2022/11/03 03:14:03;;;;;;;5.70;1.48;;;;;;;;;;5003041;28;20091;-62
2022/11/03 03:16:35;;;;;;;4.70;1.27;;;;;;;;;;4996261;28;20096;-61
2022/11/03 03:19:13;;;;;;;8.45;1.10;;;;;;;;;;5018859;28;20118;-62
2022/11/03 03:21:43;;;;;;;11.82;1.33;;;;;;;;;;4998396;28;20096;-62
2022/11/03 03:24:22;;;;;;;7.05;1.23;;;;;;;;;;5008798;28;20137;-62
2022/11/03 03:26:53;;;;;;;5.75;1.70;;;;;;;;;;4988732;28;20053;-63
2022/11/03 03:29:23;;;;;;;6.05;1.17;;;;;;;;;;5027545;28;20068;-61
2022/11/03 03:32:01;;;;;;;6.65;1.10;;;;;;;;;;5022008;28;20045;-61
2022/11/03 03:34:43;;;;;;;5.03;1.23;;;;;;;;;;5014787;28;20045;-62
2022/11/03 03:37:28;;;;;;;7.78;0.98;;;;;;;;;;5019969;28;20064;-62
2022/11/03 03:40:01;;;;;;;5.65;0.90;;;;;;;;;;5018782;28;20088;-63
2022/11/03 03:42:36;;;;;;;7.90;1.23;;;;;;;;;;4997628;28;20049;-61
2022/11/03 03:45:19;;;;;;;8.18;1.27;;;;;;;;;;4994247;28;20115;-62
2022/11/03 03:48:03;;;;;;;3.92;0.93;;;;;;;;;;4985666;28;20053;-61
2022/11/03 03:50:36;;;;;;;7.85;1.17;;;;;;;;;;4976634;28;20046;-62
2022/11/03 03:53:08;;;;;;;6.60;1.10;;;;;;;;;;4987822;28;20053;-62
2022/11/03 03:55:54;;;;;;;4.00;0.93;;;;;;;;;;4998152;28;20049;-61
2022/11/03 03:58:25;;;;;;;7.18;0.82;;;;;;;;;;4961769;28;20057;-62
2022/11/03 04:03:33;;;;;;;8.05;1.00;;;;;;;;;;4976932;28;20084;-62
2022/11/03 04:06:00;;;;;;;7.18;0.93;;;;;;;;;;4985784;28;20112;-62
2022/11/03 04:08:28;;;;;;;;;;;;;;;;;;4973766;28;20109;-63
2022/11/03 04:24:49;;;;;;;6.55;1.25;;;;;;;;;;5010525;28;20156;-61
2022/11/03 04:27:26;;;;;;;5.97;1.40;;;;;;;;;;4972048;28;20172;-63
2022/11/03 04:30:08;;;;;;;3.60;1.00;;;;;;;;;;4982765;28;20053;-62
2022/11/03 04:32:34;;;;;;;7.55;1.27;;;;;;;;;;5043521;28;20230;-62
2022/11/03 04:35:15;;;;;;;4.97;0.80;;;;;;;;;;5015606;28;20049;-62
2022/11/03 04:37:49;;;;;;;3.90;1.05;;;;;;;;;;5000948;28;20145;-62
2022/11/03 04:40:21;;;;;;;7.25;1.20;;;;;;;;;;4986415;28;20048;-62
2022/11/03 04:42:54;;;;;;;2.50;0.90;;;;;;;;;;5017801;28;20117;-63
2022/11/03 04:45:32;;;;;;;5.85;1.15;;;;;;;;;;5004620;28;20045;-64
2022/11/03 04:48:03;;;;;;;4.72;1.20;;;;;;;;;;5007298;28;20049;-62
2022/11/03 04:50:30;;;;;;;2.95;1.00;;;;;;;;;;5000021;28;20089;-62
2022/11/03 04:52:59;;;;;;;8.50;1.33;;;;;;;;;;4971237;28;20053;-62
2022/11/03 04:55:36;;;;;;;7.97;0.98;;;;;;;;;;4982822;28;20049;-61
2022/11/03 04:58:11;;;;;;;5.03;1.23;;;;;;;;;;4994511;28;20042;-63
2022/11/03 05:00:43;;;;;;;8.50;1.30;;;;;;;;;;5005059;28;20057;-62
2022/11/03 05:03:23;;;;;;;6.10;1.35;;;;;;;;;;4983580;28;20046;-62
2022/11/03 05:05:51;;;;;;;3.13;1.00;;;;;;;;;;4995000;28;20062;-64
2022/11/03 05:08:20;;;;;;;3.28;1.00;;;;;;;;;;4977879;28;20065;-62
2022/11/03 05:10:51;;;;;;;8.80;1.27;;;;;;;;;;4994033;28;20050;-62
2022/11/03 05:13:23;;;;;;;5.15;1.30;;;;;;;;;;4976329;28;20053;-64
2022/11/03 05:15:59;;;;;;;4.07;0.98;;;;;;;;;;4982227;28;20070;-62
2022/11/03 05:18:30;;;;;;;4.97;1.17;;;;;;;;;;4984636;28;20128;-62
2022/11/03 05:21:01;;;;;;;7.10;1.17;;;;;;;;;;4999988;28;20053;-64
2022/11/03 05:23:43;;;;;;;5.90;0.90;;;;;;;;;;4986828;28;20050;-63
2022/11/03 05:26:22;;;;;;;3.97;0.90;;;;;;;;;;5018337;28;20261;-62
2022/11/03 05:28:54;;;;;;;5.57;0.90;;;;;;;;;;4998005;28;20056;-62
2022/11/03 05:31:28;;;;;;;6.00;1.63;;;;;;;;;;4981604;28;20046;-62
2022/11/03 05:33:59;;;;;;;4.50;1.30;;;;;;;;;;4989768;28;20258;-62
2022/11/03 05:36:28;;;;;;;6.25;1.05;;;;;;;;;;5002027;28;20133;-64
2022/11/03 05:38:56;;;;;;;2.92;0.90;;;;;;;;;;4976223;28;20045;-63
2022/11/03 05:41:24;;;;;;;4.50;1.13;;;;;;;;;;5003912;28;20054;-62
2022/11/03 05:44:02;;;;;;;4.68;1.25;;;;;;;;;;4983814;28;20082;-61
2022/11/03 05:46:41;;;;;;;5.93;1.10;;;;;;;;;;4981038;28;20045;-62
2022/11/03 05:49:14;;;;;;;7.25;1.20;;;;;;;;;;4980018;28;20054;-62
2022/11/03 05:51:44;;;;;;;4.82;0.98;;;;;;;;;;4981213;28;20062;-62
2022/11/03 05:54:21;;;;;;;2.40;0.88;;;;;;;;;;4982566;28;20058;-62
2022/11/03 05:56:47;;;;;;;4.43;1.08;;;;;;;;;;4996198;28;20046;-63
2022/11/03 05:59:22;;;;;;;6.65;1.10;;;;;;;;;;4990428;28;20070;-62
2022/11/03 06:02:05;;;;;;;6.88;1.52;;;;;;;;;;4980672;28;20053;-63
2022/11/03 06:04:39;;;;;;;5.45;1.27;;;;;;;;;;4980776;28;20137;-64
2022/11/03 06:07:20;;;;;;;4.60;1.08;;;;;;;;;;4997937;28;20058;-63
2022/11/03 06:09:47;;;;;;;3.17;1.00;;;;;;;;;;4990044;28;20160;-62
2022/11/03 06:12:17;;;;;;;3.97;0.93;;;;;;;;;;5017784;28;20071;-63
2022/11/03 06:14:48;;;;;;;7.10;1.13;;;;;;;;;;4988883;28;20061;-62
2022/11/03 06:17:21;;;;;;;3.10;1.20;;;;;;;;;;5002295;28;20058;-61
2022/11/03 06:19:49;;;;;;;5.70;0.93;;;;;;;;;;4990337;28;20054;-63
2022/11/03 06:22:18;;;;;;;5.82;0.93;;;;;;;;;;5009182;28;20054;-63
2022/11/03 06:24:45;;;;;;;;;;;;;;;;;;4990259;28;20041;-62
2022/11/03 06:27:13;;;;;;;10.23;1.20;;;;;;;;;;5015924;28;20072;-62
2022/11/03 06:29:39;;;;;;;2.37;0.90;;;;;;;;;;4986888;28;20050;-62
2022/11/03 06:32:10;;;;;;;4.55;1.50;;;;;;;;;;5006996;28;20320;-61
2022/11/03 06:34:41;;;;;;;7.28;0.98;;;;;;;;;;4983320;28;20054;-62
2022/11/03 06:37:14;;;;;;;6.07;1.10;;;;;;;;;;4996583;28;20495;-64
2022/11/03 06:39:41;;;;;;;4.07;1.27;;;;;;;;;;4990956;28;20147;-63
2022/11/03 06:42:11;;;;;;;5.93;1.20;;;;;;;;;;4975488;28;20046;-62
2022/11/03 06:44:40;;;;;;;4.00;1.00;;;;;;;;;;4980747;28;20144;-62
2022/11/03 06:47:15;;;;;;;3.75;1.02;;;;;;;;;;5002147;28;20054;-65
2022/11/03 06:49:43;;;;;;;5.50;0.98;;;;;;;;;;5015381;28;20049;-64
2022/11/03 06:52:15;;;;;;;8.80;1.13;;;;;;;;;;4998438;28;20348;-62
2022/11/03 06:54:42;;;;;;;4.53;1.13;;;;;;;;;;4982208;28;20057;-64
2022/11/03 06:57:10;;;;;;;7.82;1.25;;;;;;;;;;4978586;28;20042;-63
2022/11/03 06:59:38;;;;;;;4.72;1.02;;;;;;;;;;4982836;28;20060;-64
2022/11/03 07:02:15;;;;;;;7.90;1.20;;;;;;;;;;4973111;28;20046;-62
2022/11/03 07:04:49;;;;;;;7.68;1.30;;;;;;;;;;4984615;28;20133;-63
2022/11/03 07:07:16;;;;;;;6.03;1.20;;;;;;;;;;4979017;28;20141;-61
2022/11/03 07:09:43;;;;;;;3.75;1.00;;;;;;;;;;4982972;28;20147;-63
2022/11/03 07:12:13;;;;;;;7.50;1.48;;;;;;;;;;4993418;28;20370;-61
2022/11/03 07:14:40;;;;;;;1.67;0.80;;;;;;;;;;4986742;28;20066;-64
2022/11/03 07:17:13;;;;;;;3.83;1.10;;;;;;;;;;4983821;28;20127;-64
2022/11/03 07:19:41;;;;;;;3.83;1.10;;;;;;;;;;4982291;28;20097;-63
2022/11/03 07:22:15;;;;;;;9.37;1.47;;;;;;;;;;4988455;28;20053;-60
2022/11/03 07:24:44;;;;;;;8.80;1.15;;;;;;;;;;5005010;28;20069;-63
2022/11/03 07:27:14;;;;;;;13.25;1.75;;;;;;;;;;4976813;28;20112;-64
2022/11/03 07:29:42;;;;;;;3.80;0.85;;;;;;;;;;4980574;28;20072;-63
2022/11/03 07:32:11;;;;;;;4.80;1.40;;;;;;;;;;4975922;28;20060;-65
2022/11/03 07:34:38;;;;;;;9.23;1.42;;;;;;;;;;4999197;28;20042;-63
2022/11/03 07:37:05;;;;;;;5.30;1.42;;;;;;;;;;4989303;28;20099;-62
2022/11/03 07:39:34;;;;;;;6.78;0.98;;;;;;;;;;5000970;28;20053;-63
2022/11/03 07:42:02;;;;;;;6.45;1.17;;;;;;;;;;4986945;28;20060;-62
2022/11/03 07:44:29;;;;;;;8.02;1.50;;;;;;;;;;4980991;28;20065;-65
2022/11/03 07:46:56;;;;;;;9.10;1.60;;;;;;;;;;5003184;28;20127;-63
2022/11/03 07:49:27;;;;;;;6.75;1.20;;;;;;;;;;5014180;28;20053;-63
2022/11/03 07:51:55;;;;;;;3.92;1.05;;;;;;;;;;5003948;28;20057;-62
2022/11/03 07:54:23;;;;;;;7.63;1.43;;;;;;;;;;4991248;28;20097;-63
2022/11/03 07:56:53;;;;;;;5.53;1.13;;;;;;;;;;4999328;28;20112;-62
2022/11/03 07:59:21;;;;;;;4.82;1.10;;;;;;;;;;4976687;28;20093;-63
2022/11/03 08:01:50;;;;;;;6.68;1.15;;;;;;;;;;4978635;28;20102;-63
2022/11/03 08:04:22;;;;;;;8.35;1.33;;;;;;;;;;4985779;28;20141;-63
2022/11/03 08:06:49;;;;;;;7.57;1.45;;;;;;;;;;5000601;28;20056;-62
2022/11/03 08:09:15;;;;;;;9.35;1.80;;;;;;;;;;4981689;28;20169;-62
2022/11/03 08:11:42;;;;;;;4.32;1.20;;;;;;;;;;4979225;28;20059;-62
2022/11/03 08:14:10;;;;;;;5.82;1.55;;;;;;;;;;4977285;28;20050;-63
2022/11/03 08:16:37;;;;;;;3.97;1.10;;;;;;;;;;5002829;28;20065;-64
2022/11/03 08:19:04;;;;;;;4.38;1.30;;;;;;;;;;4992953;28;20085;-62
2022/11/03 08:21:30;;;;;;;6.63;1.65;;;;;;;;;;4991085;28;20172;-63
2022/11/03 08:24:00;;;;;;;2.38;0.88;;;;;;;;;;4981919;28;20050;-62
2022/11/03 08:26:27;;;;;;;4.93;1.30;;;;;;;;;;4996303;28;20165;-63
2022/11/03 08:28:53;;;;;;;3.10;0.90;;;;;;;;;;4980348;28;20504;-63
2022/11/03 08:31:21;;;;;;;6.20;1.10;;;;;;;;;;4982563;28;20056;-63
2022/11/03 08:33:55;;;;;;;5.35;1.17;;;;;;;;;;4982162;28;20050;-64
2022/11/03 08:36:21;;;;;;;7.32;1.45;;;;;;;;;;4995182;28;20085;-63
2022/11/03 08:38:48;;;;;;;5.00;0.93;;;;;;;;;;4998678;28;20169;-62
2022/11/03 08:41:14;;;;;;;4.85;1.27;;;;;;;;;;4998430;28;20141;-63
2022/11/03 08:43:42;;;;;;;8.88;1.60;;;;;;;;;;4999703;28;20033;-63
2022/11/03 08:46:09;;;;;;;9.10;1.13;;;;;;;;;;4975321;28;20086;-62
2022/11/03 08:48:38;;;;;;;5.38;1.17;;;;;;;;;;4983442;28;20058;-63
2022/11/03 08:51:04;;;;;;;;;;;;;;;;;;4990463;28;20053;-63
2022/11/03 08:53:31;;;;;;;7.00;1.08;;;;;;;;;;5009851;28;19929;-62
2022/11/03 08:55:57;;;;;;;6.88;1.20;;;;;;;;;;4982414;28;20073;-62
2022/11/03 08:58:24;;;;;;;3.33;1.30;;;;;;;;;;5005105;28;20062;-62
2022/11/03 09:00:50;;;;;;;10.38;1.10;;;;;;;;;;4999542;28;20144;-64
2022/11/03 09:03:17;;;;;;;10.95;1.40;;;;;;;;;;4985141;28;20066;-63
2022/11/03 09:05:45;;;;;;;6.70;1.30;;;;;;;;;;4988595;28;20053;-63
2022/11/03 09:08:12;;;;;;;3.00;0.95;;;;;;;;;;5002266;28;20137;-64
2022/11/03 09:10:39;;;;;;;4.97;1.50;;;;;;;;;;5001222;28;20175;-63
2022/11/03 09:13:05;;;;;;;4.68;1.20;;;;;;;;;;5007334;28;20052;-62
2022/11/03 09:15:32;;;;;;;10.80;1.95;;;;;;;;;;5014688;28;20077;-63
2022/11/03 09:17:59;;;;;;;8.05;1.38;;;;;;;;;;4983281;28;20057;-63
2022/11/03 09:20:26;;;;;;;6.32;1.42;;;;;;;;;;5010622;28;20073;-63
2022/11/03 09:22:56;;;;;;;7.78;1.83;;;;;;;;;;5005564;28;20053;-63
2022/11/03 09:25:25;;;;;;;7.72;1.40;;;;;;;;;;5019068;28;20048;-63
2022/11/03 09:27:52;;;;;;;6.82;1.40;;;;;;;;;;4998764;28;20050;-62
2022/11/03 09:30:19;;;;;;;6.32;1.52;;;;;;;;;;5017260;28;20053;-64
2022/11/03 09:32:47;;;;;;;7.38;1.58;;;;;;;;;;4992857;28;20057;-63
2022/11/03 09:35:15;;;;;;;6.55;1.63;;;;;;;;;;4986484;28;20119;-63
2022/11/03 09:37:41;;;;;;;4.90;1.45;;;;;;;;;;4982382;28;20079;-63
2022/11/03 09:40:12;;;;;;;9.10;1.42;;;;;;;;;;4984494;28;20045;-63
2022/11/03 09:42:39;;;;;;;4.75;1.10;;;;;;;;;;4982233;28;20589;-63
2022/11/03 09:45:07;;;;;;;10.02;1.90;;;;;;;;;;5007693;28;20053;-63
2022/11/03 09:47:35;;;;;;;8.68;1.60;;;;;;;;;;5006879;28;20052;-62
2022/11/03 09:50:02;;;;;;;7.97;1.27;;;;;;;;;;4975218;28;20061;-63
2022/11/03 09:52:28;;;;;;;3.08;1.30;;;;;;;;;;4998718;28;20045;-63
2022/11/03 09:54:55;;;;;;;6.32;1.60;;;;;;;;;;5002725;28;20049;-62
2022/11/03 09:57:26;;;;;;;7.47;1.63;;;;;;;;;;5000821;28;20069;-63
2022/11/03 09:59:53;;;;;;;4.18;1.23;;;;;;;;;;5000824;28;20069;-63
2022/11/03 10:02:22;;;;;;;7.03;1.60;;;;;;;;;;5014735;28;20117;-63
2022/11/03 10:04:50;;;;;;;;;;;;;;;;;;5001729;28;20140;-63
2022/11/03 10:07:16;;;;;;;3.90;1.30;;;;;;;;;;4989001;28;20131;-63
2022/11/03 10:09:47;;;;;;;3.75;1.23;;;;;;;;;;4984656;28;20054;-63
2022/11/03 10:12:14;;;;;;;11.05;1.80;;;;;;;;;;4981509;28;20104;-62
2022/11/03 10:14:43;;;;;;;8.65;1.40;;;;;;;;;;4993170;28;20116;-62
2022/11/03 10:17:14;;;;;;;7.97;1.30;;;;;;;;;;4999387;28;20061;-62
2022/11/03 10:19:41;;;;;;;6.15;1.70;;;;;;;;;;4981585;28;20054;-63
2022/11/03 10:22:08;;;;;;;8.70;1.70;;;;;;;;;;4989873;28;20063;-62
2022/11/03 10:24:36;;;;;;;5.53;1.60;;;;;;;;;;5005595;28;20045;-62
2022/11/03 10:27:03;;;;;;;7.85;1.60;;;;;;;;;;4986305;28;20388;-63
2022/11/03 10:29:30;;;;;;;2.58;1.05;;;;;;;;;;5003092;28;20061;-63
2022/11/03 10:31:59;;;;;;;7.25;1.35;;;;;;;;;;5002244;28;20045;-63
2022/11/03 10:34:27;;;;;;;5.40;1.27;;;;;;;;;;4988877;28;20053;-63
2022/11/03 10:37:11;;;;;;;7.63;1.33;;;;;;;;;;5001350;28;20053;-63
2022/11/03 10:39:38;;;;;;;5.72;1.60;;;;;;;;;;4994556;28;20045;-62
2022/11/03 10:42:05;;;;;;;5.20;1.20;;;;;;;;;;4980980;28;20054;-63
2022/11/03 10:44:32;;;;;;;3.88;1.42;;;;;;;;;;4992296;28;20044;-63
2022/11/03 10:47:01;;;;;;;4.57;1.38;;;;;;;;;;5006833;28;20069;-62
2022/11/03 10:49:28;;;;;;;4.20;1.02;;;;;;;;;;4995636;28;20045;-65
2022/11/03 10:51:57;;;;;;;5.65;1.20;;;;;;;;;;5003291;28;20054;-65
2022/11/03 10:54:24;;;;;;;7.05;1.25;;;;;;;;;;4990579;28;20174;-63
2022/11/03 10:56:51;;;;;;;4.50;1.20;;;;;;;;;;4997967;28;20046;-62
2022/11/03 10:59:19;;;;;;;7.20;1.17;;;;;;;;;;4983249;28;20062;-62
2022/11/03 11:01:46;;;;;;;7.77;1.33;;;;;;;;;;4990976;28;20050;-63
2022/11/03 11:04:15;;;;;;;4.75;1.55;;;;;;;;;;4991215;28;20050;-62
2022/11/03 11:06:42;;;;;;;9.05;1.75;;;;;;;;;;5007446;28;20089;-62
2022/11/03 11:09:10;;;;;;;2.92;1.20;;;;;;;;;;4997818;28;20112;-62
2022/11/03 11:11:36;;;;;;;3.60;1.20;;;;;;;;;;4991868;28;20050;-63
2022/11/03 11:14:21;;;;;;;8.70;1.70;;;;;;;;;;5008415;28;20319;-63
2022/11/03 11:16:49;;;;;;;5.65;1.30;;;;;;;;;;4991513;28;20081;-62
2022/11/03 11:19:17;;;;;;;9.33;1.40;;;;;;;;;;5002235;28;20050;-63
2022/11/03 11:22:00;;;;;;;3.05;1.27;;;;;;;;;;4985548;28;20054;-61
2022/11/03 11:24:45;;;;;;;11.98;1.73;;;;;;;;;;4987456;28;20060;-63
2022/11/03 11:27:30;;;;;;;10.43;1.50;;;;;;;;;;4990761;28;20050;-63
2022/11/03 11:29:57;;;;;;;6.70;1.63;;;;;;;;;;4992287;28;20064;-63
2022/11/03 11:32:38;;;;;;;6.93;1.60;;;;;;;;;;5007429;28;20089;-64
2022/11/03 11:35:08;;;;;;;5.72;1.38;;;;;;;;;;4905432;28;20061;-64
2022/11/03 11:37:35;;;;;;;5.25;1.27;;;;;;;;;;4946486;28;20051;-64
2022/11/03 11:40:03;;;;;;;7.20;2.20;;;;;;;;;;4948583;28;20062;-64
2022/11/03 11:42:30;;;;;;;11.47;2.23;;;;;;;;;;4951930;28;20050;-63
2022/11/03 11:45:02;;;;;;;5.63;1.60;;;;;;;;;;4958749;28;20056;-63
2022/11/03 11:47:42;;;;;;;6.15;1.63;;;;;;;;;;4944730;28;20131;-63
2022/11/03 11:50:28;;;;;;;7.20;1.58;;;;;;;;;;4936940;28;20051;-63
2022/11/03 11:53:05;;;;;;;6.05;1.58;;;;;;;;;;4938319;28;20063;-63
2022/11/03 11:55:35;;;;;;;4.28;1.25;;;;;;;;;;4979314;28;20046;-63
2022/11/03 11:58:03;;;;;;;6.93;1.50;;;;;;;;;;4951198;28;20043;-63
2022/11/03 12:00:31;;;;;;;9.20;1.63;;;;;;;;;;4969715;28;20054;-63
2022/11/03 12:02:58;;;;;;;6.75;1.70;;;;;;;;;;4960268;28;20124;-63
2022/11/03 12:05:26;;;;;;;5.90;2.00;;;;;;;;;;4965627;28;20050;-64
2022/11/03 12:07:54;;;;;;;8.30;1.83;;;;;;;;;;4959400;28;20046;-64
2022/11/03 12:10:24;;;;;;;9.77;1.55;;;;;;;;;;4964260;28;20082;-63
2022/11/03 12:12:51;;;;;;;9.10;1.50;;;;;;;;;;4957420;28;20050;-63
2022/11/03 12:15:37;;;;;;;8.40;1.48;;;;;;;;;;4960925;28;20161;-63
2022/11/03 12:18:18;;;;;;;4.50;1.45;;;;;;;;;;4938892;28;20058;-63
2022/11/03 12:20:46;;;;;;;3.42;1.17;;;;;;;;;;4977714;28;20059;-63
2022/11/03 12:23:28;;;;;;;6.63;1.42;;;;;;;;;;4948307;28;20059;-63
2022/11/03 12:25:56;;;;;;;5.90;1.20;;;;;;;;;;4947838;28;20105;-63
2022/11/03 12:28:33;;;;;;;3.75;1.20;;;;;;;;;;4955016;28;20058;-63
2022/11/03 12:31:00;;;;;;;5.90;1.15;;;;;;;;;;4950473;28;20101;-63
2022/11/03 12:33:27;;;;;;;6.45;1.10;;;;;;;;;;4957520;28;20054;-65
2022/11/03 12:35:53;;;;;;;4.00;1.27;;;;;;;;;;4948320;28;20077;-63
2022/11/03 12:38:21;;;;;;;4.90;1.15;;;;;;;;;;4964537;28;20062;-63
2022/11/03 12:40:47;;;;;;;5.80;1.50;;;;;;;;;;4962583;28;20046;-63
2022/11/03 12:43:16;;;;;;;5.47;1.23;;;;;;;;;;4966196;28;20057;-63
2022/11/03 12:45:43;;;;;;;7.68;1.38;;;;;;;;;;4943832;28;20063;-63
2022/11/03 12:48:09;;;;;;;4.15;1.40;;;;;;;;;;4959751;28;20058;-63
2022/11/03 12:50:38;;;;;;;7.22;1.15;;;;;;;;;;4969332;28;20212;-63
2022/11/03 12:53:06;;;;;;;4.43;1.30;;;;;;;;;;4969900;28;20113;-64
2022/11/03 12:55:34;;;;;;;4.47;1.10;;;;;;;;;;4960522;28;20117;-63
2022/11/03 12:58:02;;;;;;;4.53;1.23;;;;;;;;;;4955457;28;20146;-63
2022/11/03 13:00:30;;;;;;;4.50;1.20;;;;;;;;;;4962839;28;20070;-63
2022/11/03 13:02:56;;;;;;;4.68;1.55;;;;;;;;;;4962205;28;20317;-63
2022/11/03 13:05:24;;;;;;;8.73;1.50;;;;;;;;;;4956504;28;20055;-63
2022/11/03 13:07:53;;;;;;;4.93;1.37;;;;;;;;;;4946321;28;20093;-63
2022/11/03 13:10:19;;;;;;;2.55;1.30;;;;;;;;;;4948061;28;20078;-63
2022/11/03 13:12:47;;;;;;;3.88;1.17;;;;;;;;;;4964021;28;20046;-63
2022/11/03 13:15:14;;;;;;;3.88;1.10;;;;;;;;;;4956092;28;20050;-62
2022/11/03 13:17:42;;;;;;;4.38;1.33;;;;;;;;;;4968885;28;20050;-62
2022/11/03 13:20:10;;;;;;;6.75;1.40;;;;;;;;;;4933193;28;20154;-62
2022/11/03 13:22:38;;;;;;;5.13;1.50;;;;;;;;;;4961061;28;20151;-63
2022/11/03 13:25:05;;;;;;;3.60;1.38;;;;;;;;;;4980592;28;20054;-63
2022/11/03 13:27:31;;;;;;;8.50;1.40;;;;;;;;;;4949325;28;20059;-63
2022/11/03 13:29:59;;;;;;;8.35;1.73;;;;;;;;;;4938500;28;20055;-63
2022/11/03 13:32:26;;;;;;;5.53;1.13;;;;;;;;;;4937052;28;20062;-63
2022/11/03 13:34:54;;;;;;;3.30;1.30;;;;;;;;;;4941627;28;20051;-62
2022/11/03 13:37:21;;;;;;;4.60;1.30;;;;;;;;;;4938969;28;20069;-63
2022/11/03 13:39:48;;;;;;;3.28;1.20;;;;;;;;;;4962025;28;20074;-62
2022/11/03 13:42:17;;;;;;;3.38;1.08;;;;;;;;;;4937655;28;20391;-63
2022/11/03 13:44:45;;;;;;;3.90;1.30;;;;;;;;;;4942692;28;20114;-64
2022/11/03 13:47:11;;;;;;;4.45;1.40;;;;;;;;;;4934764;28;20142;-63
2022/11/03 13:49:38;;;;;;;7.43;1.40;;;;;;;;;;4940820;28;20058;-63
2022/11/03 13:52:06;;;;;;;3.60;1.25;;;;;;;;;;4952142;28;20158;-63
2022/11/03 13:54:33;;;;;;;7.50;1.52;;;;;;;;;;4957605;28;20058;-63
2022/11/03 13:56:59;;;;;;;2.47;1.02;;;;;;;;;;4945860;28;20059;-63
2022/11/03 13:59:26;;;;;;;6.85;1.50;;;;;;;;;;4957263;28;20059;-63
2022/11/03 14:01:53;;;;;;;8.82;1.52;;;;;;;;;;4938791;28;20113;-63
2022/11/03 14:04:21;;;;;;;3.97;1.50;;;;;;;;;;4953583;28;20114;-63
2022/11/03 14:06:48;;;;;;;8.90;2.15;;;;;;;;;;4953553;28;20051;-63
2022/11/03 14:09:16;;;;;;;4.82;1.55;;;;;;;;;;4945310;28;20062;-62
2022/11/03 14:14:28;;;;;;;11.13;1.55;;;;;;;;;;4951016;28;20050;-62
2022/11/03 14:16:55;;;;;;;4.70;1.30;;;;;;;;;;4969140;28;20110;-62
2022/11/03 14:19:24;;;;;;;5.00;1.15;;;;;;;;;;4942193;28;20389;-62
2022/11/03 14:21:50;;;;;;;4.43;1.27;;;;;;;;;;4957774;28;20055;-62
2022/11/03 14:24:19;;;;;;;7.55;1.30;;;;;;;;;;4943795;28;20050;-63
2022/11/03 14:26:45;;;;;;;4.10;1.27;;;;;;;;;;4960112;28;20072;-62
2022/11/03 14:29:12;;;;;;;3.13;1.27;;;;;;;;;;4944543;28;20055;-62
2022/11/03 14:31:39;;;;;;;3.25;1.20;;;;;;;;;;4959678;28;20062;-62
2022/11/03 14:34:06;;;;;;;5.25;1.08;;;;;;;;;;4951072;28;20042;-62
2022/11/03 14:36:33;;;;;;;7.88;1.17;;;;;;;;;;4957929;28;20063;-62
2022/11/03 14:39:00;;;;;;;6.00;1.20;;;;;;;;;;4934771;28;20117;-61
2022/11/03 14:44:12;;;;;;;6.65;1.38;;;;;;;;;;4937556;28;20117;-62
2022/11/03 14:46:38;;;;;;;2.10;0.88;;;;;;;;;;4934113;28;20051;-62
2022/11/03 14:49:05;;;;;;;7.90;1.30;;;;;;;;;;4938641;28;20198;-62
2022/11/03 14:51:32;;;;;;;3.78;0.88;;;;;;;;;;4976138;28;20050;-62
2022/11/03 14:53:58;;;;;;;4.43;1.60;;;;;;;;;;4972748;28;20102;-62
2022/11/03 14:56:27;;;;;;;3.53;1.25;;;;;;;;;;4941346;28;20059;-62
2022/11/03 14:58:56;;;;;;;8.32;1.48;;;;;;;;;;4949716;28;20071;-62
2022/11/03 15:01:22;;;;;;;4.90;1.73;;;;;;;;;;4956346;28;20118;-61
2022/11/03 15:03:49;;;;;;;4.35;1.02;;;;;;;;;;4946399;28;20062;-61
2022/11/03 15:06:16;;;;;;;3.70;1.05;;;;;;;;;;4969663;28;20046;-61
2022/11/03 15:08:45;;;;;;;2.20;1.00;;;;;;;;;;4953955;28;20061;-61
2022/11/03 15:11:13;;;;;;;2.88;1.08;;;;;;;;;;4934983;28;20061;-62
2022/11/03 15:13:40;;;;;;;5.63;1.10;;;;;;;;;;4956758;28;20053;-62
2022/11/03 15:16:08;;;;;;;1.73;1.05;;;;;;;;;;4954225;28;20047;-62
2022/11/03 15:18:35;;;;;;;6.43;1.20;;;;;;;;;;4961195;28;20054;-62
2022/11/03 15:21:01;;;;;;;6.32;1.60;;;;;;;;;;4950790;28;20059;-61
2022/11/03 15:23:29;;;;;;;6.13;1.30;;;;;;;;;;4956202;28;20047;-62
2022/11/03 15:25:56;;;;;;;3.38;1.20;;;;;;;;;;4932602;28;20051;-61